Archiv-/Tagesdaten

--Timestamp---	Temp	Chill	HIndex	Humid	Dewpt	 Wind 	HiWind	WindDir	Rain 	Barom	Solar	 ET  	 UV 
--------------	----	-----	------	-----	-----	------	------	-------	-----	-----	-----	-----	----
20101113 00:00	14.1	14.1	14.1	69	8.5	29	48	248	0.0	1003.7	0	0.102	0.0
20101113 00:05	14.1	14.1	14.1	69	8.5	27	56	248	0.0	1003.4	0	0.000	0.0
20101113 00:10	14.1	14.1	14.1	69	8.5	29	51	270	0.0	1003.5	0	0.000	0.0
20101113 00:15	14.1	14.1	14.1	69	8.5	31	53	270	0.0	1003.5	0	0.000	0.0
20101113 00:20	14.1	14.1	14.1	70	8.7	26	40	248	0.0	1003.4	0	0.000	0.0
20101113 00:25	14.1	14.1	14.1	70	8.7	27	53	248	0.0	1003.4	0	0.000	0.0
20101113 00:30	14.1	14.1	14.1	70	8.7	27	53	270	0.0	1003.6	0	0.000	0.0
20101113 00:35	14.1	14.1	14.1	70	8.7	29	53	270	0.0	1003.5	0	0.000	0.0
20101113 00:40	14.1	14.1	14.1	70	8.7	26	48	270	0.0	1003.6	0	0.000	0.0
20101113 00:45	14.0	14.0	14.0	70	8.6	31	63	270	0.0	1003.3	0	0.000	0.0
20101113 00:50	14.1	14.1	14.1	70	8.7	27	43	270	0.0	1003.4	0	0.000	0.0
20101113 00:55	13.9	13.9	13.9	71	8.8	26	47	270	0.0	1003.3	0	0.000	0.0
20101113 01:00	13.9	13.9	13.9	71	8.8	29	50	248	0.0	1003.3	0	0.102	0.0
20101113 01:05	13.9	13.9	13.9	71	8.7	26	45	270	0.0	1003.1	0	0.000	0.0
20101113 01:10	13.9	13.9	13.9	71	8.7	27	53	270	0.0	1003.1	0	0.000	0.0
20101113 01:15	13.8	13.8	13.8	71	8.7	24	40	248	0.0	1003.0	0	0.000	0.0
20101113 01:20	13.8	13.8	13.8	71	8.7	26	43	270	0.0	1002.9	0	0.000	0.0
20101113 01:25	13.9	13.9	13.9	71	8.7	29	55	248	0.0	1002.8	0	0.000	0.0
20101113 01:30	13.9	13.9	13.9	70	8.6	29	47	270	0.0	1002.9	0	0.000	0.0
20101113 01:35	13.8	13.8	13.8	70	8.5	23	43	270	0.0	1002.9	0	0.000	0.0
20101113 01:40	13.8	13.8	13.8	71	8.6	23	37	270	0.0	1003.0	0	0.000	0.0
20101113 01:45	13.8	13.8	13.8	70	8.5	29	45	248	0.0	1003.0	0	0.000	0.0
20101113 01:50	13.8	13.8	13.8	70	8.5	24	40	248	0.0	1002.9	0	0.000	0.0
20101113 01:55	13.8	13.8	13.8	70	8.4	24	45	270	0.0	1003.2	0	0.000	0.0
20101113 02:00	13.8	13.8	13.8	70	8.5	27	47	270	0.0	1003.1	0	0.076	0.0
20101113 02:05	13.9	13.9	13.9	70	8.5	27	56	270	0.0	1003.1	0	0.000	0.0
20101113 02:10	13.9	13.9	13.9	69	8.3	27	43	270	0.0	1003.2	0	0.000	0.0
20101113 02:15	13.8	13.8	13.8	69	8.2	24	43	270	0.0	1003.2	0	0.000	0.0
20101113 02:20	13.9	13.9	13.9	69	8.3	29	50	270	0.0	1003.1	0	0.000	0.0
20101113 02:25	13.9	13.9	13.9	69	8.3	27	42	270	0.0	1003.3	0	0.000	0.0
20101113 02:30	13.9	13.9	13.9	69	8.3	27	50	248	0.0	1003.3	0	0.000	0.0
20101113 02:35	14.1	14.1	14.1	68	8.2	32	53	270	0.0	1003.2	0	0.000	0.0
20101113 02:40	14.1	14.1	14.1	68	8.2	29	51	270	0.0	1003.2	0	0.000	0.0
20101113 02:45	14.1	14.1	14.1	68	8.2	29	45	270	0.0	1003.1	0	0.000	0.0
20101113 02:50	14.2	14.2	14.2	67	8.1	32	53	270	0.0	1003.1	0	0.000	0.0
20101113 02:55	14.1	14.1	14.1	67	8.0	27	53	248	0.0	1003.2	0	0.000	0.0
20101113 03:00	14.1	14.1	14.1	67	8.0	27	53	270	0.0	1003.1	0	0.102	0.0
20101113 03:05	14.0	14.0	14.0	68	8.2	29	47	270	0.0	1003.3	0	0.000	0.0
20101113 03:10	14.0	14.0	14.0	67	8.0	29	45	270	0.0	1003.1	0	0.000	0.0
20101113 03:15	14.0	14.0	14.0	67	8.0	27	50	248	0.0	1003.1	0	0.000	0.0
20101113 03:20	14.0	14.0	14.0	67	8.0	29	53	270	0.0	1003.0	0	0.000	0.0
20101113 03:25	14.1	14.1	14.1	67	8.0	29	51	270	0.0	1003.0	0	0.000	0.0
20101113 03:30	14.0	14.0	14.0	67	8.0	29	53	270	0.0	1003.0	0	0.000	0.0
20101113 03:35	13.9	13.9	13.9	68	8.1	26	45	248	0.0	1003.1	0	0.000	0.0
20101113 03:40	13.9	13.9	13.9	67	7.9	27	48	270	0.0	1003.1	0	0.000	0.0
20101113 03:45	13.9	13.9	13.9	68	8.1	26	50	248	0.0	1003.2	0	0.000	0.0
20101113 03:50	13.9	13.9	13.9	68	8.1	26	40	270	0.0	1003.3	0	0.000	0.0
20101113 03:55	13.8	13.8	13.8	68	8.0	24	40	270	0.0	1003.4	0	0.000	0.0
20101113 04:00	13.9	13.9	13.9	68	8.1	29	55	270	0.0	1003.4	0	0.102	0.0
20101113 04:05	13.9	13.9	13.9	68	8.1	24	42	270	0.0	1003.3	0	0.000	0.0
20101113 04:10	13.9	13.9	13.9	68	8.1	26	48	270	0.0	1003.5	0	0.000	0.0
20101113 04:15	13.9	13.9	13.9	68	8.1	24	51	270	0.0	1003.5	0	0.000	0.0
20101113 04:20	13.8	13.8	13.8	68	8.0	24	40	270	0.0	1003.5	0	0.000	0.0
20101113 04:25	13.8	13.8	13.8	69	8.2	19	32	270	0.0	1003.6	0	0.000	0.0
20101113 04:30	13.7	13.7	13.7	69	8.1	23	39	270	0.0	1003.6	0	0.000	0.0
20101113 04:35	13.7	13.7	13.7	69	8.1	23	43	270	0.0	1003.6	0	0.000	0.0
20101113 04:40	13.7	13.7	13.7	69	8.1	21	32	248	0.0	1003.8	0	0.000	0.0
20101113 04:45	13.6	13.6	13.6	69	8.0	21	42	270	0.0	1004.0	0	0.000	0.0
20101113 04:50	13.7	13.7	13.7	69	8.1	26	45	270	0.0	1003.9	0	0.000	0.0
20101113 04:55	13.7	13.7	13.7	69	8.1	24	42	270	0.0	1003.9	0	0.000	0.0
20101113 05:00	13.6	13.6	13.6	69	8.0	19	34	270	0.0	1003.9	0	0.076	0.0
20101113 05:05	13.6	13.6	13.6	69	8.0	21	37	270	0.0	1003.9	0	0.000	0.0
20101113 05:10	13.7	13.7	13.7	69	8.1	26	39	270	0.0	1003.8	0	0.000	0.0
20101113 05:15	13.6	13.6	13.6	69	8.0	19	35	270	0.0	1004.0	0	0.000	0.0
20101113 05:20	13.6	13.6	13.6	69	8.0	21	40	270	0.0	1004.1	0	0.000	0.0
20101113 05:25	13.5	13.5	13.5	69	7.9	21	32	270	0.0	1004.2	0	0.000	0.0
20101113 05:30	13.5	13.5	13.5	69	7.9	24	42	270	0.0	1004.2	0	0.000	0.0
20101113 05:35	13.4	13.4	13.4	69	7.9	21	35	270	0.0	1004.4	0	0.000	0.0
20101113 05:40	13.4	13.4	13.4	69	7.8	23	42	270	0.0	1004.3	0	0.000	0.0
20101113 05:45	13.5	13.5	13.5	69	7.9	23	37	270	0.0	1004.3	0	0.000	0.0
20101113 05:50	13.4	13.4	13.4	69	7.8	19	32	270	0.0	1004.3	0	0.000	0.0
20101113 05:55	13.3	13.3	13.3	69	7.8	18	31	270	0.0	1004.4	0	0.000	0.0
20101113 06:00	13.3	13.3	13.3	70	7.9	19	35	270	0.0	1004.3	0	0.076	0.0
20101113 06:05	13.3	13.3	13.3	69	7.7	23	34	270	0.0	1004.2	0	0.000	0.0
20101113 06:10	13.3	13.3	13.3	69	7.8	19	37	270	0.0	1004.4	0	0.000	0.0
20101113 06:15	13.3	13.3	13.3	69	7.8	18	32	270	0.0	1004.5	0	0.000	0.0
20101113 06:20	13.2	13.2	13.2	70	7.9	16	29	270	0.0	1004.5	0	0.000	0.0
20101113 06:25	13.2	13.2	13.2	70	7.9	19	35	270	0.0	1004.4	0	0.000	0.0
20101113 06:30	13.2	13.2	13.2	70	7.8	18	27	270	0.0	1004.5	0	0.000	0.0
20101113 06:35	13.1	13.1	13.1	70	7.8	18	31	270	0.0	1004.5	0	0.000	0.0
20101113 06:40	13.1	13.1	13.1	70	7.8	18	35	248	0.0	1004.7	0	0.000	0.0
20101113 06:45	13.0	13.0	13.0	70	7.7	14	23	248	0.0	1004.8	0	0.000	0.0
20101113 06:50	13.1	13.1	13.1	70	7.7	19	35	270	0.0	1004.8	0	0.000	0.0
20101113 06:55	13.2	13.2	13.2	69	7.6	18	34	270	0.0	1004.8	0	0.000	0.0
20101113 07:00	13.2	13.2	13.2	69	7.7	21	37	270	0.0	1004.9	0	0.076	0.0
20101113 07:05	13.3	13.3	13.3	68	7.5	19	39	248	0.0	1004.9	0	0.000	0.0
20101113 07:10	13.3	13.3	13.3	68	7.5	19	37	270	0.0	1004.9	0	0.000	0.0
20101113 07:15	13.4	13.4	13.4	68	7.7	21	31	270	0.0	1005.0	0	0.000	0.0
20101113 07:20	13.5	13.5	13.5	68	7.7	18	32	248	0.0	1005.2	0	0.000	0.0
20101113 07:25	13.4	13.4	13.4	68	7.7	18	31	248	0.0	1005.1	7	0.000	0.0
20101113 07:30	13.4	13.4	13.4	68	7.6	16	27	248	0.0	1005.0	9	0.000	0.0
20101113 07:35	13.4	13.4	13.4	68	7.7	16	32	248	0.0	1005.2	12	0.000	0.0
20101113 07:40	13.5	13.5	13.5	67	7.5	16	31	248	0.0	1005.1	16	0.000	0.0
20101113 07:45	13.5	13.5	13.5	67	7.5	14	29	248	0.0	1005.1	19	0.000	0.0
20101113 07:50	13.6	13.6	13.6	67	7.5	14	27	270	0.0	1005.2	19	0.000	0.0
20101113 07:55	13.6	13.6	13.6	68	7.8	14	23	270	0.0	1005.2	19	0.000	0.0
20101113 08:00	13.6	13.6	13.6	67	7.6	18	40	270	0.0	1005.3	20	0.076	0.0
20101113 08:05	13.7	13.7	13.7	67	7.7	18	31	248	0.0	1005.0	24	0.000	0.0
20101113 08:10	13.9	13.9	13.9	66	7.6	21	35	248	0.0	1005.0	26	0.000	0.0
20101113 08:15	13.9	13.9	13.9	66	7.7	18	32	248	0.0	1004.9	27	0.000	0.0
20101113 08:20	13.9	13.9	13.9	65	7.5	16	31	248	0.0	1004.9	30	0.000	0.0
20101113 08:25	14.0	14.0	14.0	66	7.7	16	29	248	0.0	1004.9	36	0.000	0.0
20101113 08:30	14.1	14.1	14.1	65	7.6	18	29	248	0.0	1004.9	40	0.000	0.0
20101113 08:35	14.1	14.1	14.1	66	7.9	16	26	270	0.0	1004.8	46	0.000	0.0
20101113 08:40	14.2	14.2	14.2	66	7.9	16	24	248	0.0	1004.8	48	0.000	0.0
20101113 08:45	14.2	14.2	14.2	65	7.7	14	26	248	0.0	1004.8	48	0.000	0.0
20101113 08:50	14.4	14.4	14.4	65	7.9	13	27	270	0.0	1004.8	53	0.000	0.0
20101113 08:55	14.6	14.6	14.6	64	7.9	19	43	270	0.0	1004.8	54	0.000	0.0
20101113 09:00	14.7	14.7	14.7	64	7.9	16	27	270	0.0	1004.8	44	0.102	0.0
20101113 09:05	14.8	14.8	14.8	63	7.8	21	37	270	0.0	1004.7	39	0.000	0.0
20101113 09:10	15.0	15.0	15.0	62	7.8	19	34	248	0.0	1004.7	34	0.000	0.0
20101113 09:15	15.0	15.0	15.0	63	8.0	19	35	270	0.0	1004.7	31	0.000	0.0
20101113 09:20	15.0	15.0	15.0	62	7.8	24	42	248	0.0	1004.6	27	0.000	0.0
20101113 09:25	15.0	15.0	15.0	62	7.8	23	40	270	0.0	1004.5	25	0.000	0.0
20101113 09:30	15.0	15.0	15.0	61	7.5	21	45	248	0.0	1004.3	31	0.000	0.0
20101113 09:35	15.0	15.0	15.0	61	7.5	23	35	270	0.0	1004.5	42	0.000	0.0
20101113 09:40	15.0	15.0	15.0	61	7.5	23	37	270	0.0	1004.5	54	0.000	0.0
20101113 09:45	15.2	15.2	15.2	61	7.7	26	37	270	0.0	1004.7	50	0.000	0.0
20101113 09:50	15.2	15.2	15.2	62	8.0	21	34	270	0.0	1004.7	47	0.000	0.0
20101113 09:55	15.3	15.3	15.3	62	8.0	21	39	270	0.0	1004.7	54	0.000	0.4
20101113 10:00	15.3	15.3	15.3	62	8.1	18	35	270	0.0	1004.8	54	0.127	0.3
20101113 10:05	15.5	15.5	15.5	61	8.0	21	37	270	0.0	1004.8	45	0.000	0.0
20101113 10:10	15.6	15.6	15.6	62	8.3	21	34	270	0.0	1004.7	48	0.000	0.0
20101113 10:15	15.5	15.5	15.5	62	8.2	19	31	270	0.0	1004.7	57	0.000	0.6
20101113 10:20	15.6	15.6	15.6	61	8.1	21	37	270	0.0	1004.8	93	0.000	0.9
20101113 10:25	15.8	15.8	15.8	62	8.5	21	32	248	0.0	1004.8	100	0.000	0.9
20101113 10:30	15.8	15.8	15.8	61	8.3	21	32	270	0.0	1004.9	68	0.000	1.0
20101113 10:35	15.9	15.9	15.9	62	8.6	21	32	270	0.0	1004.9	43	0.000	0.0
20101113 10:40	15.9	15.9	15.9	62	8.7	16	24	270	0.0	1004.8	52	0.000	0.3
20101113 10:45	16.0	16.0	16.0	60	8.2	24	48	270	0.0	1004.8	344	0.000	1.1
20101113 10:50	16.2	16.2	16.2	61	8.6	21	34	270	0.0	1005.1	347	0.000	1.3
20101113 10:55	16.3	16.3	16.3	61	8.8	18	45	248	0.0	1004.7	354	0.000	1.3
20101113 11:00	16.4	16.4	16.4	60	8.7	19	34	270	0.0	1004.6	356	0.178	1.3
20101113 11:05	16.5	16.5	16.5	60	8.7	18	37	270	0.0	1004.7	362	0.000	1.4
20101113 11:10	16.6	16.6	16.6	59	8.5	19	32	270	0.0	1004.6	369	0.000	1.4
20101113 11:15	16.6	16.6	16.6	60	8.8	21	32	270	0.0	1004.6	341	0.000	1.4
20101113 11:20	16.6	16.6	16.6	59	8.5	21	34	270	0.0	1004.4	372	0.000	1.5
20101113 11:25	16.7	16.7	16.7	59	8.6	19	31	270	0.0	1004.5	386	0.000	1.5
20101113 11:30	16.8	16.8	16.8	59	8.8	14	24	248	0.0	1004.5	350	0.000	1.5
20101113 11:35	16.9	16.9	16.9	59	8.8	19	35	270	0.0	1004.5	347	0.000	1.5
20101113 11:40	17.0	17.0	17.0	59	8.9	16	26	270	0.0	1004.3	377	0.000	1.5
20101113 11:45	17.1	17.1	17.1	60	9.3	13	21	270	0.0	1004.3	383	0.000	1.6
20101113 11:50	17.3	17.3	17.3	58	9.0	18	35	248	0.0	1004.3	389	0.000	1.5
20101113 11:55	17.2	17.2	17.2	59	9.1	18	32	248	0.0	1004.2	230	0.000	1.4
20101113 12:00	17.3	17.3	17.3	58	8.9	16	27	248	0.0	1004.3	378	0.279	1.6
20101113 12:05	17.4	17.4	17.4	57	8.8	18	35	270	0.0	1004.1	380	0.000	1.6
20101113 12:10	17.3	17.3	17.3	59	9.2	21	32	270	0.0	1004.1	378	0.000	1.6
20101113 12:15	17.3	17.3	17.3	57	8.7	21	42	270	0.0	1004.0	380	0.000	1.5
20101113 12:20	17.2	17.2	17.2	57	8.6	23	40	270	0.0	1003.9	378	0.000	1.5
20101113 12:25	17.2	17.2	17.2	58	8.9	18	32	270	0.0	1003.7	359	0.000	1.5
20101113 12:30	17.3	17.3	17.3	58	9.0	16	27	270	0.0	1003.6	374	0.000	1.5
20101113 12:35	17.5	17.5	17.5	59	9.4	13	27	292	0.0	1003.7	372	0.000	1.5
20101113 12:40	17.6	17.6	17.6	58	9.2	14	24	270	0.0	1003.8	366	0.000	1.5
20101113 12:45	17.8	17.8	17.8	58	9.4	14	29	248	0.0	1003.8	347	0.000	1.4
20101113 12:50	17.9	17.9	17.9	57	9.2	14	24	270	0.0	1003.8	348	0.000	1.4
20101113 12:55	17.9	17.9	17.9	56	9.0	16	31	270	0.0	1003.7	341	0.000	1.4
20101113 13:00	17.9	17.9	17.9	56	9.0	19	32	292	0.0	1003.8	352	0.305	1.4
20101113 13:05	17.9	17.9	17.9	58	9.5	16	32	292	0.0	1004.0	355	0.000	1.3
20101113 13:10	17.8	17.8	17.8	56	8.9	19	32	270	0.0	1003.8	322	0.000	1.3
20101113 13:15	17.7	17.7	17.7	56	8.8	21	32	270	0.0	1003.8	285	0.000	1.2
20101113 13:20	17.6	17.6	17.6	57	9.0	18	27	292	0.0	1003.7	282	0.000	1.2
20101113 13:25	17.6	17.6	17.6	58	9.2	16	26	270	0.0	1003.6	309	0.000	1.2
20101113 13:30	17.6	17.6	17.6	57	9.0	14	27	270	0.0	1003.6	326	0.000	1.2
20101113 13:35	17.7	17.7	17.7	58	9.3	13	19	270	0.0	1003.5	303	0.000	1.1
20101113 13:40	17.7	17.7	17.7	57	9.1	18	31	248	0.0	1003.6	315	0.000	1.1
20101113 13:45	17.7	17.7	17.7	57	9.0	16	27	270	0.0	1003.5	297	0.000	1.1
20101113 13:50	17.7	17.7	17.7	57	9.1	16	31	270	0.0	1003.5	357	0.000	1.0
20101113 13:55	17.7	17.7	17.7	57	9.0	21	34	270	0.0	1003.6	336	0.000	1.0
20101113 14:00	17.6	17.6	17.6	57	9.0	21	34	270	0.0	1003.5	307	0.279	0.9
20101113 14:05	17.6	17.6	17.6	57	9.0	16	32	270	0.0	1003.6	261	0.000	0.9
20101113 14:10	17.6	17.6	17.6	58	9.2	14	26	270	0.0	1003.5	247	0.000	0.8
20101113 14:15	17.7	17.7	17.7	59	9.6	11	21	248	0.0	1003.6	263	0.000	0.8
20101113 14:20	17.7	17.7	17.7	58	9.3	16	26	270	0.0	1003.6	255	0.000	0.8
20101113 14:25	17.6	17.6	17.6	58	9.2	18	26	270	0.0	1003.6	202	0.000	0.7
20101113 14:30	17.3	17.3	17.3	58	9.0	21	42	270	0.0	1003.6	194	0.000	0.6
20101113 14:35	17.2	17.2	17.2	58	8.9	18	31	270	0.0	1003.5	198	0.000	0.6
20101113 14:40	17.1	17.1	17.1	59	9.0	16	32	270	0.0	1003.4	61	0.000	0.2
20101113 14:45	16.9	16.9	16.9	59	8.9	18	27	270	0.0	1003.5	142	0.000	0.5
20101113 14:50	16.9	16.9	16.9	60	9.1	16	26	270	0.0	1003.7	118	0.000	0.3
20101113 14:55	16.7	16.7	16.7	60	8.9	16	26	248	0.0	1003.6	70	0.000	0.0
20101113 15:00	16.5	16.5	16.5	61	8.9	14	27	270	0.0	1003.6	62	0.178	0.0
20101113 15:05	16.3	16.3	16.3	61	8.8	16	24	270	0.0	1003.7	76	0.000	0.0
20101113 15:10	16.3	16.3	16.3	61	8.7	13	24	248	0.0	1003.6	88	0.000	0.0
20101113 15:15	16.2	16.2	16.2	62	8.9	11	23	270	0.0	1003.6	89	0.000	0.0
20101113 15:20	16.2	16.2	16.2	63	9.1	8	16	248	0.0	1003.6	83	0.000	0.0
20101113 15:25	16.1	16.1	16.1	63	9.1	10	18	248	0.0	1003.7	72	0.000	0.0
20101113 15:30	16.1	16.1	16.1	63	9.0	6	13	270	0.0	1004.0	61	0.000	0.0
20101113 15:35	16.0	16.0	16.0	63	9.0	8	11	270	0.0	1004.0	53	0.000	0.0
20101113 15:40	15.9	15.9	15.9	62	8.6	11	23	270	0.0	1004.1	51	0.000	0.0
20101113 15:45	15.9	15.9	15.9	62	8.6	10	21	270	0.0	1004.1	48	0.000	0.0
20101113 15:50	15.8	15.8	15.8	63	8.7	10	23	270	0.0	1004.2	40	0.000	0.0
20101113 15:55	15.6	15.6	15.6	64	8.8	10	21	270	0.0	1004.1	31	0.000	0.0
20101113 16:00	15.4	15.4	15.4	64	8.7	5	10	270	0.0	1004.1	28	0.076	0.0
20101113 16:05	15.2	15.2	15.2	65	8.7	6	11	270	0.0	1004.1	25	0.000	0.0
20101113 16:10	15.0	15.0	15.0	66	8.7	3	6	270	0.0	1004.1	21	0.000	0.0
20101113 16:15	15.0	15.0	15.0	66	8.7	3	6	270	0.0	1004.0	19	0.000	0.0
20101113 16:20	15.0	15.0	15.0	66	8.7	5	8	270	0.0	1003.9	15	0.000	0.0
20101113 16:25	14.9	14.9	14.9	66	8.6	5	10	270	0.0	1003.9	12	0.000	0.0
20101113 16:30	14.8	14.8	14.8	66	8.5	5	10	248	0.0	1004.0	8	0.000	0.0
20101113 16:35	14.7	14.7	14.7	66	8.4	5	10	248	0.0	1004.1	4	0.000	0.0
20101113 16:40	14.6	14.6	14.6	67	8.5	3	8	248	0.0	1004.2	0	0.000	0.0
20101113 16:45	14.3	14.3	14.3	67	8.3	0	5	248	0.0	1004.3	0	0.000	0.0
20101113 16:50	14.1	14.1	14.1	68	8.3	5	8	248	0.0	1004.3	0	0.000	0.0
20101113 16:55	13.9	13.9	13.9	69	8.3	3	8	248	0.0	1004.3	0	0.000	0.0
20101113 17:00	13.7	13.7	13.7	69	8.1	2	5	248	0.0	1004.2	0	0.025	0.0
20101113 17:05	13.5	13.5	13.5	70	8.1	5	8	248	0.0	1004.3	0	0.000	0.0
20101113 17:10	13.4	13.4	13.4	70	8.0	5	10	248	0.0	1004.4	0	0.000	0.0
20101113 17:15	13.3	13.3	13.3	70	8.0	6	10	248	0.0	1004.4	0	0.000	0.0
20101113 17:20	13.3	13.3	13.3	70	8.0	6	10	248	0.0	1004.5	0	0.000	0.0
20101113 17:25	13.3	13.3	13.3	70	7.9	3	8	248	0.0	1004.5	0	0.000	0.0
20101113 17:30	13.2	13.2	13.2	70	7.8	3	6	248	0.0	1004.4	0	0.000	0.0
20101113 17:35	13.0	13.0	13.0	70	7.7	0	10	248	0.0	1004.5	0	0.000	0.0
20101113 17:40	12.8	12.8	12.8	71	7.7	5	8	248	0.0	1004.6	0	0.000	0.0
20101113 17:45	12.7	12.7	12.7	71	7.5	5	10	248	0.0	1004.6	0	0.000	0.0
20101113 17:50	12.7	12.7	12.7	71	7.5	6	10	248	0.0	1004.6	0	0.000	0.0
20101113 17:55	12.6	12.6	12.6	71	7.5	6	10	202	0.0	1004.6	0	0.000	0.0
20101113 18:00	12.6	12.6	12.6	71	7.4	6	11	202	0.0	1004.6	0	0.025	0.0
20101113 18:05	12.5	12.5	12.5	72	7.6	6	11	225	0.0	1004.5	0	0.000	0.0
20101113 18:10	12.4	12.4	12.4	72	7.5	6	11	225	0.0	1004.6	0	0.000	0.0
20101113 18:15	12.3	12.3	12.3	72	7.4	6	10	225	0.0	1004.5	0	0.000	0.0
20101113 18:20	12.1	12.1	12.1	73	7.4	5	8	225	0.0	1004.5	0	0.000	0.0
20101113 18:25	11.9	11.9	11.9	74	7.4	5	6	225	0.0	1004.6	0	0.000	0.0
20101113 18:30	11.7	11.7	11.7	74	7.2	2	6	225	0.0	1004.7	0	0.000	0.0
20101113 18:35	11.6	11.6	11.6	74	7.1	3	6	225	0.0	1004.8	0	0.000	0.0
20101113 18:40	11.4	11.4	11.4	75	7.2	0	5	225	0.0	1004.8	0	0.000	0.0
20101113 18:45	11.3	11.3	11.3	75	7.0	0	2	225	0.0	1004.8	0	0.000	0.0
20101113 18:50	11.1	11.1	11.1	76	7.0	2	5	225	0.0	1004.8	0	0.000	0.0
20101113 18:55	10.9	10.9	10.9	76	6.9	3	6	225	0.0	1004.8	0	0.000	0.0
20101113 19:00	10.8	10.8	10.8	77	7.0	5	8	225	0.0	1004.7	0	0.025	0.0
20101113 19:05	10.8	10.8	10.8	77	7.0	3	6	225	0.0	1004.7	0	0.000	0.0
20101113 19:10	10.8	10.8	10.8	77	7.0	5	8	225	0.0	1004.7	0	0.000	0.0
20101113 19:15	10.8	10.8	10.8	77	6.9	5	8	225	0.0	1004.8	0	0.000	0.0
20101113 19:20	10.8	10.8	10.8	78	7.1	5	8	225	0.0	1004.7	0	0.000	0.0
20101113 19:25	10.7	10.7	10.7	78	7.0	3	8	225	0.0	1004.7	0	0.000	0.0
20101113 19:30	10.7	10.7	10.7	78	7.0	5	8	225	0.0	1004.6	0	0.000	0.0
20101113 19:35	10.7	10.7	10.7	78	7.0	5	8	225	0.0	1004.6	0	0.000	0.0
20101113 19:40	10.7	10.7	10.7	78	7.0	6	11	225	0.0	1004.6	0	0.000	0.0
20101113 19:45	10.7	10.7	10.7	78	7.0	5	11	180	0.0	1004.6	0	0.000	0.0
20101113 19:50	10.7	10.7	10.7	78	7.0	5	10	180	0.0	1004.6	0	0.000	0.0
20101113 19:55	10.6	10.6	10.6	78	6.9	5	6	180	0.0	1004.6	0	0.000	0.0
20101113 20:00	10.6	10.6	10.6	78	6.9	5	8	180	0.0	1004.7	0	0.025	0.0
20101113 20:05	10.6	10.6	10.6	78	6.9	5	8	180	0.0	1004.7	0	0.000	0.0
20101113 20:10	10.6	10.6	10.6	78	6.9	5	14	180	0.0	1004.7	0	0.000	0.0
20101113 20:15	10.7	10.7	10.7	77	6.9	3	8	202	0.0	1004.6	0	0.000	0.0
20101113 20:20	10.8	10.8	10.8	77	6.9	3	10	202	0.0	1004.6	0	0.000	0.0
20101113 20:25	10.8	10.8	10.8	77	6.9	3	8	202	0.0	1004.6	0	0.000	0.0
20101113 20:30	10.7	10.7	10.7	77	6.8	3	5	202	0.0	1004.6	0	0.000	0.0
20101113 20:35	10.6	10.6	10.6	77	6.7	3	6	202	0.0	1004.7	0	0.000	0.0
20101113 20:40	10.6	10.6	10.6	78	6.9	5	10	202	0.0	1004.7	0	0.000	0.0
20101113 20:45	10.4	10.4	10.4	78	6.8	5	8	202	0.0	1004.6	0	0.000	0.0
20101113 20:50	10.2	10.2	10.2	78	6.6	3	6	202	0.0	1004.7	0	0.000	0.0
20101113 20:55	10.1	10.1	10.1	79	6.6	2	5	202	0.0	1004.7	0	0.000	0.0
20101113 21:00	9.9	9.9	9.9	79	6.4	5	6	202	0.0	1004.8	0	0.025	0.0
20101113 21:05	9.7	9.7	9.7	80	6.4	3	6	202	0.0	1004.7	0	0.000	0.0
20101113 21:10	9.5	9.5	9.5	80	6.2	2	3	202	0.0	1005.0	0	0.000	0.0
20101113 21:15	9.3	9.3	9.3	81	6.2	3	8	202	0.0	1005.0	0	0.000	0.0
20101113 21:20	9.2	9.2	9.2	82	6.3	5	8	202	0.0	1005.0	0	0.000	0.0
20101113 21:25	9.1	9.1	9.1	82	6.2	5	8	202	0.0	1005.0	0	0.000	0.0
20101113 21:30	9.1	9.1	9.1	82	6.1	2	5	202	0.0	1005.1	0	0.000	0.0
20101113 21:35	8.9	8.9	8.9	83	6.2	5	8	202	0.0	1005.2	0	0.000	0.0
20101113 21:40	8.9	8.9	8.9	83	6.2	5	8	202	0.0	1005.3	0	0.000	0.0
20101113 21:45	8.8	8.8	8.8	83	6.1	5	10	202	0.0	1005.3	0	0.000	0.0
20101113 21:50	8.8	8.8	8.8	84	6.2	3	8	202	0.0	1005.3	0	0.000	0.0
20101113 21:55	8.7	8.7	8.7	83	6.0	3	6	202	0.0	1005.3	0	0.000	0.0
20101113 22:00	8.7	8.7	8.7	84	6.1	5	8	202	0.0	1005.3	0	0.025	0.0
20101113 22:05	8.6	8.6	8.6	84	6.1	3	8	202	0.0	1005.3	0	0.000	0.0
20101113 22:10	8.6	8.6	8.6	84	6.0	5	8	202	0.0	1005.4	0	0.000	0.0
20101113 22:15	8.5	8.5	8.5	84	6.0	5	10	202	0.0	1005.5	0	0.000	0.0
20101113 22:20	8.4	8.4	8.4	85	6.1	5	10	202	0.0	1005.4	0	0.000	0.0
20101113 22:25	8.4	8.4	8.4	85	6.1	5	8	202	0.0	1005.3	0	0.000	0.0
20101113 22:30	8.4	8.4	8.4	85	6.1	5	8	202	0.0	1005.4	0	0.000	0.0
20101113 22:35	8.4	8.4	8.4	85	6.1	5	6	202	0.0	1005.3	0	0.000	0.0
20101113 22:40	8.4	8.4	8.4	85	6.1	5	11	202	0.0	1005.4	0	0.000	0.0
20101113 22:45	8.5	7.6	8.5	85	6.1	6	11	202	0.0	1005.3	0	0.000	0.0
20101113 22:50	8.6	7.7	8.6	85	6.2	6	11	202	0.0	1005.4	0	0.000	0.0
20101113 22:55	8.6	7.7	8.6	85	6.2	6	11	180	0.0	1005.4	0	0.000	0.0
20101113 23:00	8.5	7.6	8.5	84	6.0	6	11	180	0.0	1005.3	0	0.025	0.0
20101113 23:05	8.5	7.6	8.5	85	6.1	6	14	202	0.0	1005.3	0	0.000	0.0
20101113 23:10	8.6	7.7	8.6	85	6.2	6	11	202	0.0	1005.3	0	0.000	0.0
20101113 23:15	8.5	7.6	8.5	85	6.1	6	13	180	0.0	1005.4	0	0.000	0.0
20101113 23:20	8.5	7.6	8.5	85	6.1	6	10	202	0.0	1005.3	0	0.000	0.0
20101113 23:25	8.5	7.2	8.5	85	6.1	8	18	202	0.0	1005.3	0	0.000	0.0
20101113 23:30	8.6	7.7	8.6	84	6.0	6	10	180	0.0	1005.3	0	0.000	0.0
20101113 23:35	8.5	7.6	8.5	84	6.0	6	10	180	0.0	1005.4	0	0.000	0.0
20101113 23:40	8.4	7.6	8.4	85	6.1	6	14	202	0.0	1005.3	0	0.000	0.0
20101113 23:45	8.4	7.6	8.4	85	6.1	6	11	180	0.0	1005.3	0	0.000	0.0
20101113 23:50	8.4	7.5	8.4	85	6.0	6	10	180	0.0	1005.2	0	0.000	0.0
20101113 23:55	8.3	7.4	8.3	85	6.0	6	10	180	0.0	1005.2	0	0.000	0.0



Please note the license to use and transfer of this data:
http://creativecommons.org/licenses/by-nc-sa/3.0/deed.en

Bitte beachten sie die Lizenz zur Verwertung und Weitergabe der Daten:
http://creativecommons.org/licenses/by-nc-sa/3.0/deed.de

zurück zur Übersicht der Archivdaten (Monats und Tagesdaten)

Cookies helfen bei der Bereitstellung von Inhalten. Durch die Nutzung dieser Seiten erklärst du dich damit einverstanden, dass Cookies auf deinem Rechner gespeichert werden. Weitere Information